Tatuta Maru — JD3599 — position and weather

sailwx.info

Track history (hours):
 
Tides and Currents Weather Stations Pressure Air Temp Water Temp Dewpoint Dewpoint Depression Visibility Wind Speed Wind Dir Waves Ship Positions

Tatuta Maru

Last reported at 2018-Jan-19 19:00 UTC. Time now 2018-Jan-19 19:29 UTC.
Position N 34°33' E 135°27'.

Length 43 m; draft 2.9 m.

Type: Tug. MMSI: 431005149.

Date/timePositionNaut miles runAvg speedWind from/ knotsBaromVisibWave heightAir tempDewpointWater temp
2018-Jan-19 19:00N 34°33' E 135°27'0 0.0
2018-Jan-19 18:30N 34°33' E 135°27'0 0.0
2018-Jan-19 18:00N 34°33' E 135°27'0 0.0
2018-Jan-19 17:30N 34°33' E 135°27'0 0.0
2018-Jan-19 17:00N 34°33' E 135°27'0 0.0
2018-Jan-19 16:30N 34°33' E 135°27'0 0.0
2018-Jan-19 16:00N 34°33' E 135°27'0 0.0
2018-Jan-19 15:30N 34°33' E 135°27'0 0.0
2018-Jan-19 15:00N 34°33' E 135°27'0 0.0
2018-Jan-19 14:30N 34°33' E 135°27'0 0.0
2018-Jan-19 14:00N 34°33' E 135°27'0 0.0
2018-Jan-19 13:30N 34°33' E 135°27'0 0.0
2018-Jan-19 13:00N 34°33' E 135°27'0 0.0
2018-Jan-19 12:30N 34°33' E 135°27'0 0.0
2018-Jan-19 12:00N 34°33' E 135°27'0 0.0
2018-Jan-19 11:30N 34°33' E 135°27'0 0.0
2018-Jan-19 11:00N 34°33' E 135°27'0 0.0
2018-Jan-19 10:31N 34°33' E 135°27'0 0.0
2018-Jan-19 10:01N 34°33' E 135°27'0 0.0
2018-Jan-19 09:30N 34°33' E 135°27'0 0.0
2018-Jan-19 09:00N 34°33' E 135°27'0 0.0
2018-Jan-19 08:30N 34°33' E 135°27'0 0.0
2018-Jan-19 08:00N 34°33' E 135°27'3 5.9
2018-Jan-19 07:30N 34°33' E 135°23'713.1
2018-Jan-19 07:00N 34°29' E 135°16'713.2
2018-Jan-19 06:30N 34°25' E 135°10'612.7
2018-Jan-19 06:00N 34°21' E 135°04'611.8
2018-Jan-19 05:31N 34°17' E 134°59'4 7.9
2018-Jan-19 05:00N 34°21' E 134°60'714.6
2018-Jan-19 04:30N 34°27' E 135°03'612.3
2018-Jan-19 04:00N 34°33' E 135°06'3 6.9
2018-Jan-19 03:30N 34°36' E 135°03'510.9
2018-Jan-19 03:01N 34°36' E 134°57'611.9
2018-Jan-19 02:30N 34°34' E 134°50'612.4
2018-Jan-19 02:00N 34°35' E 134°43'713.7
2018-Jan-19 01:30N 34°41' E 134°41'5 9.2
2018-Jan-19 01:00N 34°46' E 134°41'0 0.4
2018-Jan-19 00:27N 34°46' E 134°41'2 4.2
2018-Jan-19 00:00N 34°46' E 134°39'1 0.0
2018-Jan-18 05:26N 34°46' E 134°39'2 2.8
2018-Jan-18 04:41N 34°46' E 134°41'0 0.1
2018-Jan-18 04:21N 34°46' E 134°41'5 4.5
2018-Jan-18 03:18N 34°41' E 134°41'3 8.6
2018-Jan-18 02:59N 34°39' E 134°42'611.7
2018-Jan-18 02:31N 34°33' E 134°44'815.1
2018-Jan-18 02:00N 34°36' E 134°53'612.9
2018-Jan-18 01:31N 34°38' E 135°01'5 9.5
2018-Jan-18 01:01N 34°35' E 135°06'5 5.3
2018-Jan-18 00:00N 34°30' E 135°06'0 9.7
2018-Jan-17 23:57N 34°30' E 135°06'  
2018-Jan-12 06:08N 34°47' E 134°39'0 0.0
2018-Jan-12 06:00N 34°47' E 134°39'2 3.9
2018-Jan-12 05:29N 34°46' E 134°41'0 0.0
2018-Jan-12 05:00N 34°46' E 134°41'0 0.0
2018-Jan-12 04:30N 34°46' E 134°41'4 4.1
2018-Jan-12 03:25N 34°42' E 134°41'3 8.0
2018-Jan-12 03:00N 34°38' E 134°42'510.7
2018-Jan-12 02:30N 34°34' E 134°46'713.3
2018-Jan-12 02:00N 34°36' E 134°54'714.0
2018-Jan-12 01:31N 34°37' E 135°02'5 9.2
2018-Jan-12 01:01N 34°36' E 135°07'3 5.3
2018-Jan-12 00:31N 34°34' E 135°09'4 8.8
2018-Jan-12 00:00N 34°29' E 135°08'510.0
2018-Jan-11 23:30N 34°25' E 135°05'511.0
2018-Jan-11 23:00N 34°20' E 135°01'612.4
2018-Jan-11 22:31N 34°14' E 134°59'4 7.8
2018-Jan-11 22:00N 34°11' E 135°02'510.7
2018-Jan-11 21:31N 34°13' E 135°09'0 0.9
2018-Jan-11 21:00N 34°13' E 135°09'0 0.0
2018-Jan-11 20:30N 34°13' E 135°09'0 0.0
2018-Jan-11 20:00N 34°13' E 135°09'0 0.0
2018-Jan-11 19:30N 34°13' E 135°09'0 0.0
2018-Jan-11 19:00N 34°13' E 135°09'0 0.0
2018-Jan-11 18:30N 34°13' E 135°09'0 0.0
2018-Jan-11 18:00N 34°13' E 135°09'0 0.0
2018-Jan-11 17:30N 34°13' E 135°09'0 0.0
2018-Jan-11 17:00N 34°13' E 135°09'0 0.0
2018-Jan-11 16:30N 34°13' E 135°09'0 0.0
2018-Jan-11 16:00N 34°13' E 135°09'0 0.0
2018-Jan-11 15:30N 34°13' E 135°09'0 0.0
2018-Jan-11 15:00N 34°13' E 135°09'0 0.0
2018-Jan-11 14:30N 34°13' E 135°09'0 0.0
2018-Jan-11 14:00N 34°13' E 135°09'0 0.0
2018-Jan-11 13:30N 34°13' E 135°09'0 0.0
2018-Jan-11 13:00N 34°13' E 135°09'0 0.0
2018-Jan-11 12:30N 34°13' E 135°09'0 0.0
2018-Jan-11 12:00N 34°13' E 135°09'0 0.0
2018-Jan-11 11:30N 34°13' E 135°09'0 0.0
2018-Jan-11 11:00N 34°13' E 135°09'0 0.0
2018-Jan-11 10:30N 34°13' E 135°09'0 0.0
2018-Jan-11 10:00N 34°13' E 135°09'0 0.0
2018-Jan-11 09:30N 34°13' E 135°09'0 0.0
2018-Jan-11 09:00N 34°13' E 135°09'0 0.0
2018-Jan-11 08:30N 34°13' E 135°09'2 4.2
2018-Jan-11 08:00N 34°13' E 135°06'713.1
2018-Jan-11 07:30N 34°15' E 134°59'612.3
2018-Jan-11 07:01N 34°21' E 134°60'714.6
2018-Jan-11 06:31N 34°28' E 135°04'612.7
2018-Jan-11 06:00N 34°34' E 135°07'4 7.1
2018-Jan-11 05:30N 34°35' E 135°04'510.5
2018-Jan-11 05:00N 34°37' E 134°57'713.7
2018-Jan-11 04:30N 34°34' E 134°50'612.1
2018-Jan-11 04:01N 34°35' E 134°43'713.1
2018-Jan-11 03:30N 34°41' E 134°42'5 9.3
2018-Jan-11 03:00N 34°46' E 134°41'0 0.4
2018-Jan-11 02:23N 34°46' E 134°41'2 6.0
2018-Jan-11 01:59N 34°46' E 134°39'2 0.1
2018-Jan-10 04:34N 34°46' E 134°41'0 0.3
2018-Jan-10 04:21N 34°46' E 134°41'5 4.6
2018-Jan-10 03:21N 34°41' E 134°41'3 8.7
2018-Jan-10 03:00N 34°38' E 134°42'510.0
2018-Jan-10 02:30N 34°34' E 134°45'713.3
2018-Jan-10 02:00N 34°35' E 134°53'612.8
2018-Jan-10 01:30N 34°38' E 134°60'611.4
2018-Jan-10 01:00N 34°35' E 135°06'3 5.7
2018-Jan-10 00:30N 34°33' E 135°08'3 6.2
2018-Jan-10 00:00N 34°30' E 135°07'612.6
2018-Jan-09 23:31N 34°24' E 135°04'713.7
2018-Jan-09 23:00N 34°18' E 134°60'612.4
2018-Jan-09 22:31N 34°12' E 134°59'3 5.8
2018-Jan-09 22:00N 34°12' E 135°03'510.3
2018-Jan-09 21:30N 34°13' E 135°09'0 0.3
2018-Jan-09 21:00N 34°13' E 135°09'0 0.0
2018-Jan-09 20:30N 34°13' E 135°09'0 0.0
2018-Jan-09 20:00N 34°13' E 135°09'0 0.0
2018-Jan-09 19:31N 34°13' E 135°09'0 0.0
2018-Jan-09 19:00N 34°13' E 135°09'  
Track history (hours):
 
Tides and Currents Weather Stations Pressure Air Temp Water Temp Dewpoint Dewpoint Depression Visibility Wind Speed Wind Dir Waves Ship Positions

Tatuta Maru

Last reported at 2018-Jan-19 19:00 UTC. Time now 2018-Jan-19 19:29 UTC.
Position N 34°33' E 135°27'.

Length 43 m; draft 2.9 m.

Type: Tug. MMSI: 431005149.

Date/timePositionNaut miles runAvg speedWind from/ knotsBaromVisibWave heightAir tempDewpointWater temp
2018-Jan-19 19:00N 34°33' E 135°27'0 0.0
2018-Jan-19 18:30N 34°33' E 135°27'0 0.0
2018-Jan-19 18:00N 34°33' E 135°27'0 0.0
2018-Jan-19 17:30N 34°33' E 135°27'0 0.0
2018-Jan-19 17:00N 34°33' E 135°27'0 0.0
2018-Jan-19 16:30N 34°33' E 135°27'0 0.0
2018-Jan-19 16:00N 34°33' E 135°27'0 0.0
2018-Jan-19 15:30N 34°33' E 135°27'0 0.0
2018-Jan-19 15:00N 34°33' E 135°27'0 0.0
2018-Jan-19 14:30N 34°33' E 135°27'0 0.0
2018-Jan-19 14:00N 34°33' E 135°27'0 0.0
2018-Jan-19 13:30N 34°33' E 135°27'0 0.0
2018-Jan-19 13:00N 34°33' E 135°27'0 0.0
2018-Jan-19 12:30N 34°33' E 135°27'0 0.0
2018-Jan-19 12:00N 34°33' E 135°27'0 0.0
2018-Jan-19 11:30N 34°33' E 135°27'0 0.0
2018-Jan-19 11:00N 34°33' E 135°27'0 0.0
2018-Jan-19 10:31N 34°33' E 135°27'0 0.0
2018-Jan-19 10:01N 34°33' E 135°27'0 0.0
2018-Jan-19 09:30N 34°33' E 135°27'0 0.0
2018-Jan-19 09:00N 34°33' E 135°27'0 0.0
2018-Jan-19 08:30N 34°33' E 135°27'0 0.0
2018-Jan-19 08:00N 34°33' E 135°27'3 5.9
2018-Jan-19 07:30N 34°33' E 135°23'713.1
2018-Jan-19 07:00N 34°29' E 135°16'713.2
2018-Jan-19 06:30N 34°25' E 135°10'612.7
2018-Jan-19 06:00N 34°21' E 135°04'611.8
2018-Jan-19 05:31N 34°17' E 134°59'4 7.9
2018-Jan-19 05:00N 34°21' E 134°60'714.6
2018-Jan-19 04:30N 34°27' E 135°03'612.3
2018-Jan-19 04:00N 34°33' E 135°06'3 6.9
2018-Jan-19 03:30N 34°36' E 135°03'510.9
2018-Jan-19 03:01N 34°36' E 134°57'611.9
2018-Jan-19 02:30N 34°34' E 134°50'612.4
2018-Jan-19 02:00N 34°35' E 134°43'713.7
2018-Jan-19 01:30N 34°41' E 134°41'5 9.2
2018-Jan-19 01:00N 34°46' E 134°41'0 0.4
2018-Jan-19 00:27N 34°46' E 134°41'2 4.2
2018-Jan-19 00:00N 34°46' E 134°39'1 0.0
2018-Jan-18 05:26N 34°46' E 134°39'2 2.8
2018-Jan-18 04:41N 34°46' E 134°41'0 0.1
2018-Jan-18 04:21N 34°46' E 134°41'5 4.5
2018-Jan-18 03:18N 34°41' E 134°41'3 8.6
2018-Jan-18 02:59N 34°39' E 134°42'611.7
2018-Jan-18 02:31N 34°33' E 134°44'815.1
2018-Jan-18 02:00N 34°36' E 134°53'612.9
2018-Jan-18 01:31N 34°38' E 135°01'5 9.5
2018-Jan-18 01:01N 34°35' E 135°06'5 5.3
2018-Jan-18 00:00N 34°30' E 135°06'0 9.7
2018-Jan-17 23:57N 34°30' E 135°06'  
2018-Jan-12 06:08N 34°47' E 134°39'0 0.0
2018-Jan-12 06:00N 34°47' E 134°39'2 3.9
2018-Jan-12 05:29N 34°46' E 134°41'0 0.0
2018-Jan-12 05:00N 34°46' E 134°41'0 0.0
2018-Jan-12 04:30N 34°46' E 134°41'4 4.1
2018-Jan-12 03:25N 34°42' E 134°41'3 8.0
2018-Jan-12 03:00N 34°38' E 134°42'510.7
2018-Jan-12 02:30N 34°34' E 134°46'713.3
2018-Jan-12 02:00N 34°36' E 134°54'714.0
2018-Jan-12 01:31N 34°37' E 135°02'5 9.2
2018-Jan-12 01:01N 34°36' E 135°07'3 5.3
2018-Jan-12 00:31N 34°34' E 135°09'4 8.8
2018-Jan-12 00:00N 34°29' E 135°08'510.0
2018-Jan-11 23:30N 34°25' E 135°05'511.0
2018-Jan-11 23:00N 34°20' E 135°01'612.4
2018-Jan-11 22:31N 34°14' E 134°59'4 7.8
2018-Jan-11 22:00N 34°11' E 135°02'510.7
2018-Jan-11 21:31N 34°13' E 135°09'0 0.9
2018-Jan-11 21:00N 34°13' E 135°09'0 0.0
2018-Jan-11 20:30N 34°13' E 135°09'0 0.0
2018-Jan-11 20:00N 34°13' E 135°09'0 0.0
2018-Jan-11 19:30N 34°13' E 135°09'0 0.0
2018-Jan-11 19:00N 34°13' E 135°09'0 0.0
2018-Jan-11 18:30N 34°13' E 135°09'0 0.0
2018-Jan-11 18:00N 34°13' E 135°09'0 0.0
2018-Jan-11 17:30N 34°13' E 135°09'0 0.0
2018-Jan-11 17:00N 34°13' E 135°09'0 0.0
2018-Jan-11 16:30N 34°13' E 135°09'0 0.0
2018-Jan-11 16:00N 34°13' E 135°09'0 0.0
2018-Jan-11 15:30N 34°13' E 135°09'0 0.0
2018-Jan-11 15:00N 34°13' E 135°09'0 0.0
2018-Jan-11 14:30N 34°13' E 135°09'0 0.0
2018-Jan-11 14:00N 34°13' E 135°09'0 0.0
2018-Jan-11 13:30N 34°13' E 135°09'0 0.0
2018-Jan-11 13:00N 34°13' E 135°09'0 0.0
2018-Jan-11 12:30N 34°13' E 135°09'0 0.0
2018-Jan-11 12:00N 34°13' E 135°09'0 0.0
2018-Jan-11 11:30N 34°13' E 135°09'0 0.0
2018-Jan-11 11:00N 34°13' E 135°09'0 0.0
2018-Jan-11 10:30N 34°13' E 135°09'0 0.0
2018-Jan-11 10:00N 34°13' E 135°09'0 0.0
2018-Jan-11 09:30N 34°13' E 135°09'0 0.0
2018-Jan-11 09:00N 34°13' E 135°09'0 0.0
2018-Jan-11 08:30N 34°13' E 135°09'2 4.2
2018-Jan-11 08:00N 34°13' E 135°06'713.1
2018-Jan-11 07:30N 34°15' E 134°59'612.3
2018-Jan-11 07:01N 34°21' E 134°60'714.6
2018-Jan-11 06:31N 34°28' E 135°04'612.7
2018-Jan-11 06:00N 34°34' E 135°07'4 7.1
2018-Jan-11 05:30N 34°35' E 135°04'510.5
2018-Jan-11 05:00N 34°37' E 134°57'713.7
2018-Jan-11 04:30N 34°34' E 134°50'612.1
2018-Jan-11 04:01N 34°35' E 134°43'713.1
2018-Jan-11 03:30N 34°41' E 134°42'5 9.3
2018-Jan-11 03:00N 34°46' E 134°41'0 0.4
2018-Jan-11 02:23N 34°46' E 134°41'2 6.0
2018-Jan-11 01:59N 34°46' E 134°39'2 0.1
2018-Jan-10 04:34N 34°46' E 134°41'0 0.3
2018-Jan-10 04:21N 34°46' E 134°41'5 4.6
2018-Jan-10 03:21N 34°41' E 134°41'3 8.7
2018-Jan-10 03:00N 34°38' E 134°42'510.0
2018-Jan-10 02:30N 34°34' E 134°45'713.3
2018-Jan-10 02:00N 34°35' E 134°53'612.8
2018-Jan-10 01:30N 34°38' E 134°60'611.4
2018-Jan-10 01:00N 34°35' E 135°06'3 5.7
2018-Jan-10 00:30N 34°33' E 135°08'3 6.2
2018-Jan-10 00:00N 34°30' E 135°07'612.6
2018-Jan-09 23:31N 34°24' E 135°04'713.7
2018-Jan-09 23:00N 34°18' E 134°60'612.4
2018-Jan-09 22:31N 34°12' E 134°59'3 5.8
2018-Jan-09 22:00N 34°12' E 135°03'510.3
2018-Jan-09 21:30N 34°13' E 135°09'0 0.3
2018-Jan-09 21:00N 34°13' E 135°09'0 0.0
2018-Jan-09 20:30N 34°13' E 135°09'0 0.0
2018-Jan-09 20:00N 34°13' E 135°09'0 0.0
2018-Jan-09 19:31N 34°13' E 135°09'0 0.0
2018-Jan-09 19:00N 34°13' E 135°09'  

Dump ship's entire track history